Goodfellow Terrace, Missouri
Current Conditions -  °F | °C
As of 3:51 AM on Friday 21 Nov 2014 (Local Time) from KSTL Reporting Station
Clear Clear  
Wind Chill: -8°   Ceiling: Unl
Heat Index: -4°   Visibility: 10mi
Dew Point: -10°   Wind: 6mph
Humidity: 65%   Direction: 110°ESE
Pressure: 30.38"   Gusts: NA
Location:  38.694°N, 90.256°W
Report Text: KSTL 210951Z 11005KT 10SM CLR M04/M10 A3038 RMK AO2 SLP300 T10441100
Loading
Personal Weather Stations






























Interactive Weather Map New forecast layout! Learn more

10-Day Weather Forecast

Advertisements
Track Severe Weather on mobile